sensor_id;sensor_type;location;lat;lon;timestamp;temperature;humidity
24250;DHT22;12379;49.820;8.648;2022-12-18T00:01:22;-8.70;99.90
24250;DHT22;12379;49.820;8.648;2022-12-18T00:03:48;-8.70;99.90
24250;DHT22;12379;49.820;8.648;2022-12-18T00:06:14;-8.60;99.90
24250;DHT22;12379;49.820;8.648;2022-12-18T00:08:41;-8.40;99.90
24250;DHT22;12379;49.820;8.648;2022-12-18T00:11:10;-8.30;99.90
24250;DHT22;12379;49.820;8.648;2022-12-18T00:13:35;-8.20;99.90
24250;DHT22;12379;49.820;8.648;2022-12-18T00:16:06;-8.20;99.90
24250;DHT22;12379;49.820;8.648;2022-12-18T00:18:32;-8.30;99.90
24250;DHT22;12379;49.820;8.648;2022-12-18T00:20:59;-8.40;99.90
24250;DHT22;12379;49.820;8.648;2022-12-18T00:23:26;-8.70;99.90
24250;DHT22;12379;49.820;8.648;2022-12-18T00:25:51;-8.80;99.90
24250;DHT22;12379;49.820;8.648;2022-12-18T00:28:17;-8.90;99.90
24250;DHT22;12379;49.820;8.648;2022-12-18T00:30:43;-9.00;99.90
24250;DHT22;12379;49.820;8.648;2022-12-18T00:33:08;-8.90;99.90
24250;DHT22;12379;49.820;8.648;2022-12-18T00:35:34;-8.90;99.90
24250;DHT22;12379;49.820;8.648;2022-12-18T00:37:59;-8.90;99.90
24250;DHT22;12379;49.820;8.648;2022-12-18T00:40:25;-8.70;99.90
24250;DHT22;12379;49.820;8.648;2022-12-18T00:42:50;-8.70;99.90
24250;DHT22;12379;49.820;8.648;2022-12-18T00:45:27;-8.70;99.90
24250;DHT22;12379;49.820;8.648;2022-12-18T00:47:52;-8.90;99.90
24250;DHT22;12379;49.820;8.648;2022-12-18T00:50:18;-9.00;99.90
24250;DHT22;12379;49.820;8.648;2022-12-18T00:52:44;-8.80;99.90
24250;DHT22;12379;49.820;8.648;2022-12-18T00:55:10;-8.80;99.90
24250;DHT22;12379;49.820;8.648;2022-12-18T00:57:35;-8.90;99.90
24250;DHT22;12379;49.820;8.648;2022-12-18T01:00:02;-8.90;99.90
24250;DHT22;12379;49.820;8.648;2022-12-18T01:02:28;-8.70;99.90
24250;DHT22;12379;49.820;8.648;2022-12-18T01:04:53;-8.70;99.90
24250;DHT22;12379;49.820;8.648;2022-12-18T01:07:19;-8.50;99.90
24250;DHT22;12379;49.820;8.648;2022-12-18T01:09:45;-8.40;99.90
24250;DHT22;12379;49.820;8.648;2022-12-18T01:12:10;-8.50;99.90
24250;DHT22;12379;49.820;8.648;2022-12-18T01:14:36;-8.40;99.90
24250;DHT22;12379;49.820;8.648;2022-12-18T01:17:03;-8.50;99.90
24250;DHT22;12379;49.820;8.648;2022-12-18T01:19:29;-8.60;99.90
24250;DHT22;12379;49.820;8.648;2022-12-18T01:21:55;-8.90;99.90
24250;DHT22;12379;49.820;8.648;2022-12-18T01:24:20;-8.80;99.90
24250;DHT22;12379;49.820;8.648;2022-12-18T01:26:46;-8.70;99.90
24250;DHT22;12379;49.820;8.648;2022-12-18T01:29:11;-8.70;99.90
24250;DHT22;12379;49.820;8.648;2022-12-18T01:31:37;-8.70;99.90
24250;DHT22;12379;49.820;8.648;2022-12-18T01:34:04;-8.90;99.90
24250;DHT22;12379;49.820;8.648;2022-12-18T01:36:31;-9.00;99.90
24250;DHT22;12379;49.820;8.648;2022-12-18T01:39:00;-8.90;99.90
24250;DHT22;12379;49.820;8.648;2022-12-18T01:41:29;-8.90;99.90
24250;DHT22;12379;49.820;8.648;2022-12-18T01:44:57;-9.00;99.90
24250;DHT22;12379;49.820;8.648;2022-12-18T01:49:56;-9.00;99.90
24250;DHT22;12379;49.820;8.648;2022-12-18T01:52:22;-9.00;99.90
24250;DHT22;12379;49.820;8.648;2022-12-18T01:54:50;-9.00;99.90
24250;DHT22;12379;49.820;8.648;2022-12-18T01:57:16;-9.00;99.90
24250;DHT22;12379;49.820;8.648;2022-12-18T01:59:45;-9.00;99.90
24250;DHT22;12379;49.820;8.648;2022-12-18T02:02:13;-9.00;99.90
24250;DHT22;12379;49.820;8.648;2022-12-18T02:04:39;-8.90;99.90
24250;DHT22;12379;49.820;8.648;2022-12-18T02:07:17;-8.70;99.90
24250;DHT22;12379;49.820;8.648;2022-12-18T02:09:59;-8.70;99.90
24250;DHT22;12379;49.820;8.648;2022-12-18T02:15:24;-8.80;99.90
24250;DHT22;12379;49.820;8.648;2022-12-18T02:17:58;-8.80;99.90
24250;DHT22;12379;49.820;8.648;2022-12-18T02:20:43;-9.00;99.90
24250;DHT22;12379;49.820;8.648;2022-12-18T02:28:49;-9.00;99.90
24250;DHT22;12379;49.820;8.648;2022-12-18T02:31:22;-8.70;99.90
24250;DHT22;12379;49.820;8.648;2022-12-18T02:33:50;-8.40;99.90
24250;DHT22;12379;49.820;8.648;2022-12-18T02:36:18;-8.20;99.90
24250;DHT22;12379;49.820;8.648;2022-12-18T02:38:45;-8.10;99.90
24250;DHT22;12379;49.820;8.648;2022-12-18T02:41:13;-8.00;99.90
24250;DHT22;12379;49.820;8.648;2022-12-18T02:43:40;-7.90;99.90
24250;DHT22;12379;49.820;8.648;2022-12-18T02:46:31;-7.80;99.90
24250;DHT22;12379;49.820;8.648;2022-12-18T02:49:08;-7.80;99.90
24250;DHT22;12379;49.820;8.648;2022-12-18T02:54:56;-7.90;99.90
24250;DHT22;12379;49.820;8.648;2022-12-18T03:00:06;-8.00;99.90
24250;DHT22;12379;49.820;8.648;2022-12-18T03:02:48;-8.00;99.90
24250;DHT22;12379;49.820;8.648;2022-12-18T03:05:21;-8.10;99.90
24250;DHT22;12379;49.820;8.648;2022-12-18T03:07:56;-8.10;99.90
24250;DHT22;12379;49.820;8.648;2022-12-18T03:10:30;-8.20;99.90
24250;DHT22;12379;49.820;8.648;2022-12-18T03:13:09;-8.20;99.90
24250;DHT22;12379;49.820;8.648;2022-12-18T03:15:40;-8.20;99.90
24250;DHT22;12379;49.820;8.648;2022-12-18T03:18:15;-8.10;99.90
24250;DHT22;12379;49.820;8.648;2022-12-18T03:20:46;-8.10;99.90
24250;DHT22;12379;49.820;8.648;2022-12-18T03:23:17;-8.20;99.90
24250;DHT22;12379;49.820;8.648;2022-12-18T03:25:45;-8.30;99.90
24250;DHT22;12379;49.820;8.648;2022-12-18T03:28:15;-8.30;99.90
24250;DHT22;12379;49.820;8.648;2022-12-18T03:30:43;-8.20;99.90
24250;DHT22;12379;49.820;8.648;2022-12-18T03:33:20;-8.40;99.90
24250;DHT22;12379;49.820;8.648;2022-12-18T03:35:47;-8.50;99.90
24250;DHT22;12379;49.820;8.648;2022-12-18T03:38:13;-8.60;99.90
24250;DHT22;12379;49.820;8.648;2022-12-18T03:43:15;-8.50;99.90
24250;DHT22;12379;49.820;8.648;2022-12-18T03:45:48;-8.50;99.90
24250;DHT22;12379;49.820;8.648;2022-12-18T03:48:19;-8.40;99.90
24250;DHT22;12379;49.820;8.648;2022-12-18T03:50:54;-8.50;99.90
24250;DHT22;12379;49.820;8.648;2022-12-18T03:53:56;-8.50;99.90
24250;DHT22;12379;49.820;8.648;2022-12-18T03:56:26;-8.40;99.90
24250;DHT22;12379;49.820;8.648;2022-12-18T03:58:55;-8.20;99.90
24250;DHT22;12379;49.820;8.648;2022-12-18T04:01:26;-8.00;99.90
24250;DHT22;12379;49.820;8.648;2022-12-18T04:03:55;-8.00;99.90
24250;DHT22;12379;49.820;8.648;2022-12-18T04:06:22;-8.10;99.90
24250;DHT22;12379;49.820;8.648;2022-12-18T04:08:48;-8.00;99.90
24250;DHT22;12379;49.820;8.648;2022-12-18T04:11:15;-8.10;99.90
24250;DHT22;12379;49.820;8.648;2022-12-18T04:13:42;-8.10;99.90
24250;DHT22;12379;49.820;8.648;2022-12-18T04:16:08;-8.00;99.90
24250;DHT22;12379;49.820;8.648;2022-12-18T04:18:35;-7.90;99.90
24250;DHT22;12379;49.820;8.648;2022-12-18T04:21:01;-7.90;99.90
24250;DHT22;12379;49.820;8.648;2022-12-18T04:23:26;-8.00;99.90
24250;DHT22;12379;49.820;8.648;2022-12-18T04:25:52;-7.90;99.90
24250;DHT22;12379;49.820;8.648;2022-12-18T04:28:18;-8.00;99.90
24250;DHT22;12379;49.820;8.648;2022-12-18T04:30:43;-8.10;99.90
24250;DHT22;12379;49.820;8.648;2022-12-18T04:33:15;-8.20;99.90
24250;DHT22;12379;49.820;8.648;2022-12-18T04:35:41;-8.30;99.90
24250;DHT22;12379;49.820;8.648;2022-12-18T04:38:07;-8.40;99.90
24250;DHT22;12379;49.820;8.648;2022-12-18T04:40:36;-8.30;99.90
24250;DHT22;12379;49.820;8.648;2022-12-18T04:43:02;-8.40;99.90
24250;DHT22;12379;49.820;8.648;2022-12-18T04:45:28;-8.60;99.90
24250;DHT22;12379;49.820;8.648;2022-12-18T04:47:53;-8.60;99.90
24250;DHT22;12379;49.820;8.648;2022-12-18T04:50:19;-8.50;99.90
24250;DHT22;12379;49.820;8.648;2022-12-18T04:52:44;-8.40;99.90
24250;DHT22;12379;49.820;8.648;2022-12-18T04:55:10;-8.50;99.90
24250;DHT22;12379;49.820;8.648;2022-12-18T04:57:35;-8.70;99.90
24250;DHT22;12379;49.820;8.648;2022-12-18T05:00:02;-8.80;99.90
24250;DHT22;12379;49.820;8.648;2022-12-18T05:02:28;-8.90;99.90
24250;DHT22;12379;49.820;8.648;2022-12-18T05:04:53;-9.00;99.90
24250;DHT22;12379;49.820;8.648;2022-12-18T05:07:19;-9.10;99.90
24250;DHT22;12379;49.820;8.648;2022-12-18T05:09:44;-9.30;99.90
24250;DHT22;12379;49.820;8.648;2022-12-18T05:12:10;-9.40;99.90
24250;DHT22;12379;49.820;8.648;2022-12-18T05:14:35;-9.40;99.90
24250;DHT22;12379;49.820;8.648;2022-12-18T05:17:01;-9.50;99.90
24250;DHT22;12379;49.820;8.648;2022-12-18T05:19:26;-9.50;99.90
24250;DHT22;12379;49.820;8.648;2022-12-18T05:21:52;-9.50;99.90
24250;DHT22;12379;49.820;8.648;2022-12-18T05:24:17;-9.60;99.90
24250;DHT22;12379;49.820;8.648;2022-12-18T05:26:43;-9.20;99.90
24250;DHT22;12379;49.820;8.648;2022-12-18T05:29:08;-9.20;99.90
24250;DHT22;12379;49.820;8.648;2022-12-18T05:31:37;-9.30;99.90
24250;DHT22;12379;49.820;8.648;2022-12-18T05:34:03;-9.40;99.90
24250;DHT22;12379;49.820;8.648;2022-12-18T05:36:29;-9.50;99.90
24250;DHT22;12379;49.820;8.648;2022-12-18T05:38:54;-9.50;99.90
24250;DHT22;12379;49.820;8.648;2022-12-18T05:41:20;-9.50;99.90
24250;DHT22;12379;49.820;8.648;2022-12-18T05:43:45;-9.50;99.90
24250;DHT22;12379;49.820;8.648;2022-12-18T05:46:14;-9.20;99.90
24250;DHT22;12379;49.820;8.648;2022-12-18T05:48:40;-9.20;99.90
24250;DHT22;12379;49.820;8.648;2022-12-18T05:51:11;-9.20;99.90
24250;DHT22;12379;49.820;8.648;2022-12-18T05:53:38;-9.20;99.90
24250;DHT22;12379;49.820;8.648;2022-12-18T05:56:05;-9.20;99.90
24250;DHT22;12379;49.820;8.648;2022-12-18T05:58:31;-9.30;99.90
24250;DHT22;12379;49.820;8.648;2022-12-18T06:00:58;-9.40;99.90
24250;DHT22;12379;49.820;8.648;2022-12-18T06:03:30;-9.50;99.90
24250;DHT22;12379;49.820;8.648;2022-12-18T06:05:56;-9.50;99.90
24250;DHT22;12379;49.820;8.648;2022-12-18T06:08:21;-9.40;99.90
24250;DHT22;12379;49.820;8.648;2022-12-18T06:10:50;-9.40;99.90
24250;DHT22;12379;49.820;8.648;2022-12-18T06:13:16;-9.40;99.90
24250;DHT22;12379;49.820;8.648;2022-12-18T06:15:42;-9.40;99.90
24250;DHT22;12379;49.820;8.648;2022-12-18T06:18:07;-9.50;99.90
24250;DHT22;12379;49.820;8.648;2022-12-18T06:20:33;-9.60;99.90
24250;DHT22;12379;49.820;8.648;2022-12-18T06:22:58;-9.70;99.90
24250;DHT22;12379;49.820;8.648;2022-12-18T06:25:24;-9.70;99.90
24250;DHT22;12379;49.820;8.648;2022-12-18T06:27:50;-9.70;99.90
24250;DHT22;12379;49.820;8.648;2022-12-18T06:30:15;-9.60;99.90
24250;DHT22;12379;49.820;8.648;2022-12-18T06:32:41;-9.70;99.90
24250;DHT22;12379;49.820;8.648;2022-12-18T06:35:07;-9.70;99.90
24250;DHT22;12379;49.820;8.648;2022-12-18T06:37:32;-9.60;99.90
24250;DHT22;12379;49.820;8.648;2022-12-18T06:39:58;-9.70;99.90
24250;DHT22;12379;49.820;8.648;2022-12-18T06:42:24;-9.80;99.90
24250;DHT22;12379;49.820;8.648;2022-12-18T06:44:49;-9.70;99.90
24250;DHT22;12379;49.820;8.648;2022-12-18T06:47:15;-9.80;99.90
24250;DHT22;12379;49.820;8.648;2022-12-18T06:49:40;-9.70;99.90
24250;DHT22;12379;49.820;8.648;2022-12-18T06:52:06;-9.70;99.90
24250;DHT22;12379;49.820;8.648;2022-12-18T06:54:32;-9.80;99.90
24250;DHT22;12379;49.820;8.648;2022-12-18T06:56:57;-9.70;99.90
24250;DHT22;12379;49.820;8.648;2022-12-18T06:59:23;-9.70;99.90
24250;DHT22;12379;49.820;8.648;2022-12-18T07:01:48;-9.90;99.90
24250;DHT22;12379;49.820;8.648;2022-12-18T07:04:14;-10.00;99.90
24250;DHT22;12379;49.820;8.648;2022-12-18T07:06:39;-10.00;99.90
24250;DHT22;12379;49.820;8.648;2022-12-18T07:09:05;-10.00;99.90
24250;DHT22;12379;49.820;8.648;2022-12-18T07:11:32;-9.90;99.90
24250;DHT22;12379;49.820;8.648;2022-12-18T07:13:58;-9.90;99.90
24250;DHT22;12379;49.820;8.648;2022-12-18T07:16:24;-9.90;99.90
24250;DHT22;12379;49.820;8.648;2022-12-18T07:18:49;-9.80;99.90
24250;DHT22;12379;49.820;8.648;2022-12-18T07:21:17;-9.80;99.90
24250;DHT22;12379;49.820;8.648;2022-12-18T07:23:43;-9.80;99.90
24250;DHT22;12379;49.820;8.648;2022-12-18T07:26:12;-9.80;99.90
24250;DHT22;12379;49.820;8.648;2022-12-18T07:28:39;-9.80;99.90
24250;DHT22;12379;49.820;8.648;2022-12-18T07:31:06;-9.90;99.90
24250;DHT22;12379;49.820;8.648;2022-12-18T07:33:33;-9.80;99.90
24250;DHT22;12379;49.820;8.648;2022-12-18T07:36:00;-9.80;99.90
24250;DHT22;12379;49.820;8.648;2022-12-18T07:38:27;-9.90;99.90
24250;DHT22;12379;49.820;8.648;2022-12-18T07:40:52;-9.80;99.90
24250;DHT22;12379;49.820;8.648;2022-12-18T07:43:18;-9.60;99.90
24250;DHT22;12379;49.820;8.648;2022-12-18T07:45:43;-9.50;99.90
24250;DHT22;12379;49.820;8.648;2022-12-18T07:48:09;-9.50;99.90
24250;DHT22;12379;49.820;8.648;2022-12-18T07:50:35;-9.50;99.90
24250;DHT22;12379;49.820;8.648;2022-12-18T07:53:01;-9.60;99.90
24250;DHT22;12379;49.820;8.648;2022-12-18T07:55:31;-9.60;99.90
24250;DHT22;12379;49.820;8.648;2022-12-18T07:57:56;-9.50;99.90
24250;DHT22;12379;49.820;8.648;2022-12-18T08:00:22;-9.60;99.90
24250;DHT22;12379;49.820;8.648;2022-12-18T08:02:47;-9.40;99.90
24250;DHT22;12379;49.820;8.648;2022-12-18T08:05:13;-9.30;99.90
24250;DHT22;12379;49.820;8.648;2022-12-18T08:07:39;-9.40;99.90
24250;DHT22;12379;49.820;8.648;2022-12-18T08:10:06;-9.30;99.90
24250;DHT22;12379;49.820;8.648;2022-12-18T08:12:31;-9.20;99.90
24250;DHT22;12379;49.820;8.648;2022-12-18T08:14:57;-9.30;99.90
24250;DHT22;12379;49.820;8.648;2022-12-18T08:17:22;-9.00;99.90
24250;DHT22;12379;49.820;8.648;2022-12-18T08:19:48;-8.90;99.90
24250;DHT22;12379;49.820;8.648;2022-12-18T08:22:13;-8.90;99.90
24250;DHT22;12379;49.820;8.648;2022-12-18T08:24:39;-8.80;99.90
24250;DHT22;12379;49.820;8.648;2022-12-18T08:27:04;-8.70;99.90
24250;DHT22;12379;49.820;8.648;2022-12-18T08:29:30;-8.40;99.90
24250;DHT22;12379;49.820;8.648;2022-12-18T08:31:57;-7.70;99.90
24250;DHT22;12379;49.820;8.648;2022-12-18T08:34:22;-6.80;99.90
24250;DHT22;12379;49.820;8.648;2022-12-18T08:36:48;-6.40;99.90
24250;DHT22;12379;49.820;8.648;2022-12-18T08:39:13;-5.70;99.90
24250;DHT22;12379;49.820;8.648;2022-12-18T08:41:39;-5.30;99.90
24250;DHT22;12379;49.820;8.648;2022-12-18T08:44:04;-4.90;99.90
24250;DHT22;12379;49.820;8.648;2022-12-18T08:46:49;-5.00;99.90
24250;DHT22;12379;49.820;8.648;2022-12-18T08:49:14;-4.40;99.90
24250;DHT22;12379;49.820;8.648;2022-12-18T08:51:40;-4.10;99.90
24250;DHT22;12379;49.820;8.648;2022-12-18T08:54:06;-3.70;99.90
24250;DHT22;12379;49.820;8.648;2022-12-18T08:56:32;-3.20;99.90
24250;DHT22;12379;49.820;8.648;2022-12-18T08:58:58;-2.70;99.90
24250;DHT22;12379;49.820;8.648;2022-12-18T09:01:26;-2.90;99.40
24250;DHT22;12379;49.820;8.648;2022-12-18T09:03:52;-3.70;99.90
24250;DHT22;12379;49.820;8.648;2022-12-18T09:06:20;-3.60;99.90
24250;DHT22;12379;49.820;8.648;2022-12-18T09:08:46;-4.10;99.90
24250;DHT22;12379;49.820;8.648;2022-12-18T09:11:25;-4.10;99.90
24250;DHT22;12379;49.820;8.648;2022-12-18T09:13:52;-4.20;99.90
24250;DHT22;12379;49.820;8.648;2022-12-18T09:16:19;-3.90;99.90
24250;DHT22;12379;49.820;8.648;2022-12-18T09:18:45;-4.00;99.90
24250;DHT22;12379;49.820;8.648;2022-12-18T09:21:12;-4.10;99.90
24250;DHT22;12379;49.820;8.648;2022-12-18T09:23:38;-4.00;99.90
24250;DHT22;12379;49.820;8.648;2022-12-18T09:26:04;-4.20;99.90
24250;DHT22;12379;49.820;8.648;2022-12-18T09:28:29;-4.80;99.90
24250;DHT22;12379;49.820;8.648;2022-12-18T09:30:55;-4.90;99.90
24250;DHT22;12379;49.820;8.648;2022-12-18T09:33:21;-4.20;99.90
24250;DHT22;12379;49.820;8.648;2022-12-18T09:35:46;-3.90;99.90
24250;DHT22;12379;49.820;8.648;2022-12-18T09:38:17;-3.20;99.90
24250;DHT22;12379;49.820;8.648;2022-12-18T09:40:52;-2.80;99.90
24250;DHT22;12379;49.820;8.648;2022-12-18T09:43:37;-2.70;99.90
24250;DHT22;12379;49.820;8.648;2022-12-18T09:46:08;-2.50;99.90
24250;DHT22;12379;49.820;8.648;2022-12-18T09:48:40;-2.40;99.90
24250;DHT22;12379;49.820;8.648;2022-12-18T09:51:16;-2.40;99.90
24250;DHT22;12379;49.820;8.648;2022-12-18T09:53:50;-2.10;99.90
24250;DHT22;12379;49.820;8.648;2022-12-18T09:56:17;-1.60;99.90
24250;DHT22;12379;49.820;8.648;2022-12-18T10:01:21;-1.00;99.90
24250;DHT22;12379;49.820;8.648;2022-12-18T10:03:48;-1.10;99.90
24250;DHT22;12379;49.820;8.648;2022-12-18T10:06:18;-0.90;99.90
24250;DHT22;12379;49.820;8.648;2022-12-18T10:14:47;-1.30;99.90
24250;DHT22;12379;49.820;8.648;2022-12-18T10:19:49;-0.90;99.90
24250;DHT22;12379;49.820;8.648;2022-12-18T10:27:26;0.10;99.90
24250;DHT22;12379;49.820;8.648;2022-12-18T10:29:53;0.40;99.90
24250;DHT22;12379;49.820;8.648;2022-12-18T10:32:24;0.60;99.90
24250;DHT22;12379;49.820;8.648;2022-12-18T10:34:53;-0.30;99.90
24250;DHT22;12379;49.820;8.648;2022-12-18T10:37:22;-0.80;99.90
24250;DHT22;12379;49.820;8.648;2022-12-18T10:42:31;-0.60;99.90
24250;DHT22;12379;49.820;8.648;2022-12-18T10:45:16;-0.90;99.90
24250;DHT22;12379;49.820;8.648;2022-12-18T10:47:47;-1.10;99.90
24250;DHT22;12379;49.820;8.648;2022-12-18T10:50:30;-1.40;99.90
24250;DHT22;12379;49.820;8.648;2022-12-18T10:52:59;-1.50;99.90
24250;DHT22;12379;49.820;8.648;2022-12-18T10:55:34;-1.70;99.90
24250;DHT22;12379;49.820;8.648;2022-12-18T10:58:23;-1.70;99.90
24250;DHT22;12379;49.820;8.648;2022-12-18T11:01:14;-1.80;99.90
24250;DHT22;12379;49.820;8.648;2022-12-18T11:06:19;-2.00;99.90
24250;DHT22;12379;49.820;8.648;2022-12-18T11:09:19;-2.20;99.90
24250;DHT22;12379;49.820;8.648;2022-12-18T11:11:57;-2.40;99.90
24250;DHT22;12379;49.820;8.648;2022-12-18T11:14:29;-2.40;99.90
24250;DHT22;12379;49.820;8.648;2022-12-18T11:16:57;-2.20;99.90
24250;DHT22;12379;49.820;8.648;2022-12-18T11:19:40;-2.20;99.90
24250;DHT22;12379;49.820;8.648;2022-12-18T11:22:25;-2.30;99.90
24250;DHT22;12379;49.820;8.648;2022-12-18T11:27:48;-2.40;99.90
24250;DHT22;12379;49.820;8.648;2022-12-18T11:33:03;-2.50;99.90
24250;DHT22;12379;49.820;8.648;2022-12-18T11:36:02;-2.50;99.90
24250;DHT22;12379;49.820;8.648;2022-12-18T11:38:43;-2.70;99.90
24250;DHT22;12379;49.820;8.648;2022-12-18T11:41:29;-2.40;99.90
24250;DHT22;12379;49.820;8.648;2022-12-18T11:44:21;-2.30;99.90
24250;DHT22;12379;49.820;8.648;2022-12-18T11:46:52;-2.30;99.90
24250;DHT22;12379;49.820;8.648;2022-12-18T11:49:27;-2.30;99.90
24250;DHT22;12379;49.820;8.648;2022-12-18T11:52:39;-2.20;99.90
24250;DHT22;12379;49.820;8.648;2022-12-18T11:54:44;-2.20;99.90
24250;DHT22;12379;49.820;8.648;2022-12-18T11:57:17;-2.10;99.90
24250;DHT22;12379;49.820;8.648;2022-12-18T12:00:07;-2.10;99.90
24250;DHT22;12379;49.820;8.648;2022-12-18T12:17:03;-3.40;99.90
24250;DHT22;12379;49.820;8.648;2022-12-18T12:19:53;-3.80;99.90
24250;DHT22;12379;49.820;8.648;2022-12-18T12:25:36;-3.40;99.90
24250;DHT22;12379;49.820;8.648;2022-12-18T12:36:59;-3.40;99.90
24250;DHT22;12379;49.820;8.648;2022-12-18T12:39:32;-3.50;99.90
24250;DHT22;12379;49.820;8.648;2022-12-18T12:41:59;-3.70;99.90
24250;DHT22;12379;49.820;8.648;2022-12-18T12:44:51;-3.70;99.90
24250;DHT22;12379;49.820;8.648;2022-12-18T12:47:31;-3.60;99.90
24250;DHT22;12379;49.820;8.648;2022-12-18T12:50:01;-3.70;99.90
24250;DHT22;12379;49.820;8.648;2022-12-18T12:52:34;-3.80;99.90
24250;DHT22;12379;49.820;8.648;2022-12-18T12:55:05;-3.80;99.90
24250;DHT22;12379;49.820;8.648;2022-12-18T12:57:52;-3.80;99.90
24250;DHT22;12379;49.820;8.648;2022-12-18T13:00:21;-3.70;99.90
24250;DHT22;12379;49.820;8.648;2022-12-18T13:03:08;-3.70;99.90
24250;DHT22;12379;49.820;8.648;2022-12-18T13:05:49;-4.00;99.90
24250;DHT22;12379;49.820;8.648;2022-12-18T13:08:28;-4.10;99.90
24250;DHT22;12379;49.820;8.648;2022-12-18T13:10:55;-4.10;99.90
24250;DHT22;12379;49.820;8.648;2022-12-18T13:13:53;-4.00;99.90
24250;DHT22;12379;49.820;8.648;2022-12-18T13:16:23;-4.20;99.90
24250;DHT22;12379;49.820;8.648;2022-12-18T13:18:54;-4.20;99.90
24250;DHT22;12379;49.820;8.648;2022-12-18T13:21:33;-4.20;99.90
24250;DHT22;12379;49.820;8.648;2022-12-18T13:24:21;-4.00;99.90
24250;DHT22;12379;49.820;8.648;2022-12-18T13:26:48;-3.90;99.90
24250;DHT22;12379;49.820;8.648;2022-12-18T13:29:40;-3.80;99.90
24250;DHT22;12379;49.820;8.648;2022-12-18T13:32:22;-3.60;99.90
24250;DHT22;12379;49.820;8.648;2022-12-18T13:34:48;-3.60;99.90
24250;DHT22;12379;49.820;8.648;2022-12-18T13:39:58;-3.50;99.90
24250;DHT22;12379;49.820;8.648;2022-12-18T13:45:43;-3.20;99.90
24250;DHT22;12379;49.820;8.648;2022-12-18T13:48:16;-2.90;99.90
24250;DHT22;12379;49.820;8.648;2022-12-18T13:50:42;-2.70;99.90
24250;DHT22;12379;49.820;8.648;2022-12-18T13:53:20;-2.60;99.90
24250;DHT22;12379;49.820;8.648;2022-12-18T13:58:15;-2.50;99.90
24250;DHT22;12379;49.820;8.648;2022-12-18T14:00:42;-2.40;99.90
24250;DHT22;12379;49.820;8.648;2022-12-18T14:03:23;-2.40;99.90
24250;DHT22;12379;49.820;8.648;2022-12-18T14:06:07;-2.50;99.90
24250;DHT22;12379;49.820;8.648;2022-12-18T14:08:41;-2.30;99.90
24250;DHT22;12379;49.820;8.648;2022-12-18T14:11:19;-2.40;99.90
24250;DHT22;12379;49.820;8.648;2022-12-18T14:13:46;-2.40;99.90
24250;DHT22;12379;49.820;8.648;2022-12-18T14:16:14;-2.30;99.90
24250;DHT22;12379;49.820;8.648;2022-12-18T14:18:50;-2.30;99.90
24250;DHT22;12379;49.820;8.648;2022-12-18T14:21:30;-2.50;99.90
24250;DHT22;12379;49.820;8.648;2022-12-18T14:26:34;-2.40;99.90
24250;DHT22;12379;49.820;8.648;2022-12-18T14:29:17;-2.40;99.90
24250;DHT22;12379;49.820;8.648;2022-12-18T14:31:43;-2.30;99.90
24250;DHT22;12379;49.820;8.648;2022-12-18T14:34:19;-2.40;99.90
24250;DHT22;12379;49.820;8.648;2022-12-18T14:36:52;-2.40;99.90
24250;DHT22;12379;49.820;8.648;2022-12-18T14:39:18;-2.40;99.90
24250;DHT22;12379;49.820;8.648;2022-12-18T14:41:44;-2.40;99.90
24250;DHT22;12379;49.820;8.648;2022-12-18T14:44:12;-2.40;99.90
24250;DHT22;12379;49.820;8.648;2022-12-18T14:46:45;-2.50;99.90
24250;DHT22;12379;49.820;8.648;2022-12-18T14:49:30;-2.60;99.90
24250;DHT22;12379;49.820;8.648;2022-12-18T14:52:06;-2.50;99.90
24250;DHT22;12379;49.820;8.648;2022-12-18T14:54:46;-2.60;99.90
24250;DHT22;12379;49.820;8.648;2022-12-18T14:57:25;-2.70;99.90
24250;DHT22;12379;49.820;8.648;2022-12-18T14:59:52;-2.80;99.90
24250;DHT22;12379;49.820;8.648;2022-12-18T15:02:26;-3.00;99.90
24250;DHT22;12379;49.820;8.648;2022-12-18T15:05:19;-3.10;99.90
24250;DHT22;12379;49.820;8.648;2022-12-18T15:07:47;-3.40;99.90
24250;DHT22;12379;49.820;8.648;2022-12-18T15:10:14;-3.60;99.90
24250;DHT22;12379;49.820;8.648;2022-12-18T15:18:03;-4.00;99.90
24250;DHT22;12379;49.820;8.648;2022-12-18T15:23:04;-4.20;99.90
24250;DHT22;12379;49.820;8.648;2022-12-18T15:25:39;-4.30;99.90
24250;DHT22;12379;49.820;8.648;2022-12-18T15:28:23;-4.30;99.90
24250;DHT22;12379;49.820;8.648;2022-12-18T15:33:36;-4.30;99.90
24250;DHT22;12379;49.820;8.648;2022-12-18T15:36:10;-4.30;99.90
24250;DHT22;12379;49.820;8.648;2022-12-18T15:38:36;-4.30;99.90
24250;DHT22;12379;49.820;8.648;2022-12-18T15:41:02;-4.30;99.90
24250;DHT22;12379;49.820;8.648;2022-12-18T15:43:28;-4.30;99.90
24250;DHT22;12379;49.820;8.648;2022-12-18T15:46:01;-4.30;99.90
24250;DHT22;12379;49.820;8.648;2022-12-18T15:48:27;-4.30;99.90
24250;DHT22;12379;49.820;8.648;2022-12-18T15:50:56;-4.20;99.90
24250;DHT22;12379;49.820;8.648;2022-12-18T15:53:23;-4.20;99.90
24250;DHT22;12379;49.820;8.648;2022-12-18T15:55:49;-4.20;99.90
24250;DHT22;12379;49.820;8.648;2022-12-18T15:58:33;-4.20;99.90
24250;DHT22;12379;49.820;8.648;2022-12-18T16:01:00;-4.20;99.90
24250;DHT22;12379;49.820;8.648;2022-12-18T16:03:26;-4.20;99.90
24250;DHT22;12379;49.820;8.648;2022-12-18T16:05:51;-4.20;99.90
24250;DHT22;12379;49.820;8.648;2022-12-18T16:08:17;-4.30;99.90
24250;DHT22;12379;49.820;8.648;2022-12-18T16:10:43;-4.30;99.90
24250;DHT22;12379;49.820;8.648;2022-12-18T16:13:11;-4.30;99.90
24250;DHT22;12379;49.820;8.648;2022-12-18T16:15:37;-4.30;99.90
24250;DHT22;12379;49.820;8.648;2022-12-18T16:18:03;-4.20;99.90
24250;DHT22;12379;49.820;8.648;2022-12-18T16:20:29;-4.20;99.90
24250;DHT22;12379;49.820;8.648;2022-12-18T16:22:54;-4.20;99.90
24250;DHT22;12379;49.820;8.648;2022-12-18T16:25:21;-4.20;99.90
24250;DHT22;12379;49.820;8.648;2022-12-18T16:27:48;-4.20;99.90
24250;DHT22;12379;49.820;8.648;2022-12-18T16:30:20;-4.20;99.90
24250;DHT22;12379;49.820;8.648;2022-12-18T16:32:46;-4.10;99.90
24250;DHT22;12379;49.820;8.648;2022-12-18T16:35:13;-4.10;99.90
24250;DHT22;12379;49.820;8.648;2022-12-18T16:37:40;-4.10;99.90
24250;DHT22;12379;49.820;8.648;2022-12-18T16:40:10;-4.00;99.90
24250;DHT22;12379;49.820;8.648;2022-12-18T16:42:37;-4.00;99.90
24250;DHT22;12379;49.820;8.648;2022-12-18T16:45:04;-3.90;99.90
24250;DHT22;12379;49.820;8.648;2022-12-18T16:47:30;-3.90;99.90
24250;DHT22;12379;49.820;8.648;2022-12-18T16:49:56;-3.90;99.90
24250;DHT22;12379;49.820;8.648;2022-12-18T16:52:21;-4.00;99.90
24250;DHT22;12379;49.820;8.648;2022-12-18T16:54:47;-4.10;99.90
24250;DHT22;12379;49.820;8.648;2022-12-18T16:57:15;-4.20;99.90
24250;DHT22;12379;49.820;8.648;2022-12-18T16:59:40;-4.20;99.90
24250;DHT22;12379;49.820;8.648;2022-12-18T17:02:16;-4.20;99.90
24250;DHT22;12379;49.820;8.648;2022-12-18T17:04:42;-4.30;99.90
24250;DHT22;12379;49.820;8.648;2022-12-18T17:07:08;-4.30;99.90
24250;DHT22;12379;49.820;8.648;2022-12-18T17:09:34;-4.30;99.90
24250;DHT22;12379;49.820;8.648;2022-12-18T17:11:59;-4.30;99.90
24250;DHT22;12379;49.820;8.648;2022-12-18T17:14:26;-4.30;99.90
24250;DHT22;12379;49.820;8.648;2022-12-18T17:16:53;-4.30;99.90
24250;DHT22;12379;49.820;8.648;2022-12-18T17:19:19;-4.20;99.90
24250;DHT22;12379;49.820;8.648;2022-12-18T17:21:47;-4.20;99.90